Time;durP1;ratioP1;P1;durP2;ratioP2;P2;SDS_P1;SDS_P2;PMS_P1;PMS_P2;Temp;Humidity;BMP_temperature;BMP_pressure;BME280_temperature;BME280_humidity;BME280_pressure;Samples;Min_cycle;Max_cycle;Signal;HPM_P1;HPM_P2
2022/08/06 00:00:06;;;;;;;4.80;2.30;;;24.90;1.00;;;;;;5032041;28;20600;-82
2022/08/06 00:02:31;;;;;;;4.22;2.55;;;24.90;1.00;;;;;;5031598;28;20112;-82
2022/08/06 00:04:59;;;;;;;3.50;2.40;;;24.90;1.00;;;;;;5031690;28;20129;-82
2022/08/06 00:07:25;;;;;;;4.47;2.53;;;24.80;1.00;;;;;;5033205;28;20406;-81
2022/08/06 00:09:50;;;;;;;4.65;2.42;;;24.90;1.00;;;;;;5035303;28;20048;-82
2022/08/06 00:12:16;;;;;;;4.07;1.90;;;24.90;1.00;;;;;;5035286;28;20053;-81
2022/08/06 00:14:42;;;;;;;3.72;2.30;;;24.90;1.00;;;;;;5035697;28;20041;-82
2022/08/06 00:17:07;;;;;;;4.85;2.28;;;24.80;1.00;;;;;;5035310;28;20033;-82
2022/08/06 00:19:33;;;;;;;4.63;2.25;;;24.80;1.00;;;;;;5035310;28;20034;-81
2022/08/06 00:21:59;;;;;;;4.18;2.15;;;24.80;1.00;;;;;;5035865;28;20029;-82
2022/08/06 00:24:24;;;;;;;2.97;2.17;;;24.80;1.00;;;;;;5034993;28;20025;-82
2022/08/06 00:26:50;;;;;;;3.22;2.20;;;24.90;1.00;;;;;;5034797;28;20060;-82
2022/08/06 00:29:15;;;;;;;5.13;2.30;;;24.90;1.00;;;;;;5035131;28;20490;-82
2022/08/06 00:31:41;;;;;;;3.83;2.30;;;24.90;1.00;;;;;;5034884;28;20036;-82
2022/08/06 00:34:08;;;;;;;4.53;2.33;;;24.90;1.00;;;;;;5035320;28;20121;-82
2022/08/06 00:36:34;;;;;;;3.67;2.53;;;24.90;1.00;;;;;;5035365;28;20033;-82
2022/08/06 00:39:04;;;;;;;3.78;2.00;;;24.80;1.00;;;;;;5034660;28;20034;-82
2022/08/06 00:41:30;;;;;;;3.90;2.35;;;24.80;1.00;;;;;;5035000;28;20056;-82
2022/08/06 00:43:57;;;;;;;5.32;2.10;;;24.80;1.00;;;;;;5034934;28;20030;-82
2022/08/06 00:46:23;;;;;;;3.13;2.50;;;24.80;1.00;;;;;;5035187;28;20030;-82
2022/08/06 00:48:49;;;;;;;2.45;2.13;;;24.80;1.00;;;;;;5035011;28;20026;-82
2022/08/06 00:51:15;;;;;;;5.47;2.55;;;24.80;1.00;;;;;;5034698;28;20085;-82
2022/08/06 00:53:41;;;;;;;4.18;2.40;;;24.70;1.00;;;;;;5034437;28;20057;-82
2022/08/06 00:56:06;;;;;;;4.53;2.33;;;24.70;1.00;;;;;;5034441;28;20048;-82
2022/08/06 00:58:32;;;;;;;4.97;2.50;;;24.60;1.00;;;;;;5035105;28;20064;-82
2022/08/06 01:00:58;;;;;;;3.60;2.50;;;24.60;1.00;;;;;;5034552;28;20036;-82
2022/08/06 01:03:23;;;;;;;3.28;2.40;;;24.50;1.00;;;;;;5034422;28;20051;-82
2022/08/06 01:05:49;;;;;;;3.38;2.50;;;24.60;1.00;;;;;;5034753;28;20393;-82
2022/08/06 01:08:15;;;;;;;5.30;2.55;;;24.50;1.00;;;;;;5034511;28;20029;-82
2022/08/06 01:10:41;;;;;;;4.43;2.55;;;24.50;1.00;;;;;;5034497;28;20496;-82
2022/08/06 01:13:06;;;;;;;3.05;2.53;;;24.40;1.00;;;;;;5034316;28;20032;-82
2022/08/06 01:15:38;;;;;;;7.35;2.78;;;24.30;1.00;;;;;;5034159;28;20563;-82
2022/08/06 01:18:14;;;;;;;4.68;2.35;;;24.40;1.00;;;;;;5034081;28;20028;-82
2022/08/06 01:20:46;;;;;;;6.15;2.50;;;24.40;1.00;;;;;;5034424;28;20490;-82
2022/08/06 01:23:29;;;;;;;5.00;2.63;;;24.20;1.00;;;;;;5033924;28;20032;-82
2022/08/06 01:26:07;;;;;;;3.63;2.90;;;24.20;1.00;;;;;;5034039;28;20029;-83
2022/08/06 01:29:05;;;;;;;6.88;2.40;;;24.20;1.00;;;;;;5034046;28;20022;-82
2022/08/06 01:31:41;;;;;;;6.60;2.67;;;24.20;1.00;;;;;;5018533;28;20433;-82
2022/08/06 01:34:33;;;;;;;4.35;2.90;;;24.30;1.00;;;;;;5034151;28;20018;-82
2022/08/06 01:37:19;;;;;;;5.93;2.60;;;24.10;1.00;;;;;;5033360;28;20072;-82
2022/08/06 01:39:52;;;;;;;6.45;3.25;;;24.20;1.00;;;;;;5033904;28;20018;-82
2022/08/06 01:42:20;;;;;;;4.60;3.03;;;24.10;1.00;;;;;;5033796;28;20025;-82
2022/08/06 01:44:48;;;;;;;6.45;3.10;;;24.20;1.00;;;;;;5033695;28;20017;-82
2022/08/06 01:47:16;;;;;;;5.95;3.30;;;24.20;1.00;;;;;;5033784;28;20026;-81
2022/08/06 01:49:49;;;;;;;5.10;2.92;;;24.20;1.00;;;;;;5034020;28;20036;-82
2022/08/06 01:52:17;;;;;;;4.85;3.00;;;24.20;1.00;;;;;;5033315;28;20156;-82
2022/08/06 01:54:47;;;;;;;4.38;3.00;;;24.10;1.00;;;;;;5033508;28;20064;-82
2022/08/06 01:57:15;;;;;;;4.35;3.17;;;24.20;1.00;;;;;;5033903;28;20044;-81
2022/08/06 01:59:46;;;;;;;4.50;3.20;;;24.10;1.00;;;;;;5033582;28;20386;-82
2022/08/06 02:02:18;;;;;;;4.00;2.80;;;24.00;1.00;;;;;;5033440;28;20021;-82
2022/08/06 02:04:47;;;;;;;4.13;2.63;;;24.00;1.00;;;;;;5033465;28;20035;-82
2022/08/06 02:07:16;;;;;;;3.95;2.65;;;24.00;1.00;;;;;;5033318;28;20120;-82
2022/08/06 02:09:44;;;;;;;4.68;2.95;;;23.90;1.00;;;;;;5033515;28;20033;-82
2022/08/06 02:12:14;;;;;;;3.90;2.90;;;23.90;1.00;;;;;;5033187;28;20024;-82
2022/08/06 02:14:53;;;;;;;5.53;2.92;;;23.80;1.00;;;;;;5033031;28;20402;-82
2022/08/06 02:17:22;;;;;;;4.70;3.40;;;23.80;1.00;;;;;;5033251;28;20049;-82
2022/08/06 02:19:50;;;;;;;4.43;3.10;;;23.90;1.00;;;;;;5032896;28;20029;-82
2022/08/06 02:22:18;;;;;;;5.43;3.15;;;23.80;1.00;;;;;;5033512;28;20020;-82
2022/08/06 02:24:46;;;;;;;4.68;2.92;;;23.80;1.00;;;;;;5033011;28;20551;-82
2022/08/06 02:27:14;;;;;;;4.07;3.10;;;23.90;1.00;;;;;;5032668;28;20045;-82
2022/08/06 02:29:41;;;;;;;4.50;3.35;;;23.80;1.00;;;;;;5032289;28;20029;-82
2022/08/06 02:32:07;;;;;;;4.28;2.97;;;23.80;1.00;;;;;;5032673;28;20021;-82
2022/08/06 02:34:33;;;;;;;4.10;3.03;;;23.80;1.00;;;;;;5032678;28;20124;-82
2022/08/06 02:37:09;;;;;;;6.10;3.30;;;23.80;1.00;;;;;;5033151;28;20117;-82
2022/08/06 02:39:40;;;;;;;5.05;3.22;;;23.70;1.00;;;;;;5032803;28;20549;-82
2022/08/06 02:42:20;;;;;;;4.93;3.50;;;23.70;1.00;;;;;;5032651;28;20033;-81
2022/08/06 02:44:52;;;;;;;4.28;3.00;;;23.70;1.00;;;;;;5032705;28;20083;-82
2022/08/06 02:47:46;;;;;;;3.33;3.03;;;23.70;1.00;;;;;;5032685;28;20666;-82
2022/08/06 02:50:15;;;;;;;3.40;2.80;;;23.70;1.00;;;;;;5021849;28;20120;-81
2022/08/06 02:52:46;;;;;;;5.70;3.40;;;23.70;1.00;;;;;;5032566;28;20029;-82
2022/08/06 02:55:19;;;;;;;6.55;3.60;;;23.70;1.00;;;;;;5032490;28;20037;-85
2022/08/06 02:58:13;;;;;;;6.25;3.50;;;23.70;1.00;;;;;;5032571;28;20072;-82
2022/08/06 03:00:41;;;;;;;5.13;3.50;;;23.60;1.00;;;;;;5032821;28;20596;-81
2022/08/06 03:03:07;;;;;;;4.28;3.20;;;23.60;1.00;;;;;;5032122;28;20032;-82
2022/08/06 03:05:34;;;;;;;5.82;3.50;;;23.60;1.00;;;;;;5032438;28;20051;-82
2022/08/06 03:08:01;;;;;;;4.57;3.15;;;23.70;1.00;;;;;;5032734;28;20072;-82
2022/08/06 03:10:29;;;;;;;4.78;3.00;;;23.60;1.00;;;;;;5032335;28;20017;-82
2022/08/06 03:12:56;;;;;;;3.88;3.33;;;23.60;1.00;;;;;;5032475;28;20031;-82
2022/08/06 03:15:24;;;;;;;4.00;3.60;;;23.60;1.00;;;;;;5032154;28;20045;-82
2022/08/06 03:17:55;;;;;;;5.80;3.83;;;23.50;1.00;;;;;;5031959;28;20029;-82
2022/08/06 03:20:21;;;;;;;3.85;3.17;;;23.60;1.00;;;;;;5032354;28;20037;-82
2022/08/06 03:22:53;;;;;;;5.88;3.33;;;23.60;1.00;;;;;;5032593;28;20497;-82
2022/08/06 03:25:19;;;;;;;4.45;3.75;;;23.50;1.00;;;;;;5032122;28;20107;-82
2022/08/06 03:27:47;;;;;;;5.07;3.58;;;23.40;1.00;;;;;;5031791;28;20045;-82
2022/08/06 03:30:15;;;;;;;4.78;3.20;;;23.40;1.00;;;;;;5031985;28;20044;-81
2022/08/06 03:32:41;;;;;;;5.47;3.80;;;23.30;1.00;;;;;;5032299;28;20029;-82
2022/08/06 03:35:08;;;;;;;4.47;3.05;;;23.40;1.00;;;;;;5031927;28;20037;-82
2022/08/06 03:37:34;;;;;;;4.30;3.58;;;23.40;1.00;;;;;;5031960;28;20032;-82
2022/08/06 03:40:01;;;;;;;4.45;3.85;;;23.40;1.00;;;;;;5032286;28;20029;-82
2022/08/06 03:42:27;;;;;;;4.63;3.80;;;23.40;1.00;;;;;;5033793;28;20017;-82
2022/08/06 03:44:53;;;;;;;8.52;4.00;;;23.40;1.00;;;;;;5036131;28;20040;-82
2022/08/06 03:47:32;;;;;;;6.80;3.50;;;23.30;1.00;;;;;;5035725;28;20371;-82
2022/08/06 03:50:21;;;;;;;6.75;3.85;;;23.30;1.00;;;;;;5036180;28;20025;-82
2022/08/06 03:52:51;;;;;;;5.53;3.95;;;23.20;1.00;;;;;;5035793;28;20032;-82
2022/08/06 03:55:21;;;;;;;4.68;3.50;;;23.30;1.00;;;;;;5035893;28;20026;-82
2022/08/06 03:57:50;;;;;;;5.78;3.78;;;23.20;1.00;;;;;;5036135;28;20036;-82
2022/08/06 04:00:21;;;;;;;5.60;4.53;;;23.10;1.00;;;;;;5034524;28;20116;-82
2022/08/06 04:02:49;;;;;;;7.05;3.80;;;23.20;1.00;;;;;;5035272;28;20025;-81
2022/08/06 04:05:20;;;;;;;5.22;4.07;;;23.20;1.00;;;;;;5035645;28;20034;-82
2022/08/06 04:07:49;;;;;;;7.68;4.35;;;23.20;1.00;;;;;;5035528;28;20037;-82
2022/08/06 04:10:17;;;;;;;3.95;3.47;;;23.20;1.00;;;;;;5035657;28;20056;-82
2022/08/06 04:12:44;;;;;;;5.65;4.07;;;23.10;1.00;;;;;;5035569;28;20025;-82
2022/08/06 04:15:11;;;;;;;4.40;3.78;;;23.10;1.00;;;;;;5035781;28;20079;-82
2022/08/06 04:17:39;;;;;;;5.35;3.65;;;23.10;1.00;;;;;;5034723;28;20025;-82
2022/08/06 04:20:07;;;;;;;4.55;3.80;;;23.00;1.00;;;;;;5035364;28;20033;-82
2022/08/06 04:22:33;;;;;;;4.63;3.85;;;22.90;1.00;;;;;;5035373;28;20041;-83
2022/08/06 04:24:59;;;;;;;6.88;5.20;;;22.90;1.00;;;;;;5035223;28;20023;-82
2022/08/06 04:27:27;;;;;;;5.05;4.10;;;23.00;1.00;;;;;;5034682;28;20049;-81
2022/08/06 04:29:55;;;;;;;7.28;4.38;;;23.00;1.00;;;;;;5035605;28;20379;-82
2022/08/06 04:32:22;;;;;;;4.82;4.20;;;23.00;1.00;;;;;;5034674;28;20040;-82
2022/08/06 04:34:50;;;;;;;5.88;4.30;;;22.90;1.00;;;;;;5034989;28;20029;-82
2022/08/06 04:37:16;;;;;;;7.00;4.50;;;23.00;1.00;;;;;;5035049;28;20029;-82
2022/08/06 04:39:42;;;;;;;6.85;4.80;;;22.90;1.00;;;;;;5033686;28;20025;-82
2022/08/06 04:42:08;;;;;;;4.32;3.92;;;22.90;1.00;;;;;;5035047;28;20034;-82
2022/08/06 04:44:36;;;;;;;5.20;4.38;;;23.00;1.00;;;;;;5033659;28;20042;-82
2022/08/06 04:47:03;;;;;;;8.90;4.07;;;22.90;1.00;;;;;;5034928;28;20100;-82
2022/08/06 04:49:29;;;;;;;4.43;4.03;;;23.00;1.00;;;;;;5035284;28;20021;-82
2022/08/06 04:51:55;;;;;;;6.53;4.13;;;23.00;1.00;;;;;;5034586;28;20079;-83
2022/08/06 04:54:21;;;;;;;6.38;4.57;;;23.00;1.00;;;;;;5034089;28;20428;-85
2022/08/06 04:56:47;;;;;;;8.23;4.63;;;23.10;1.00;;;;;;5034440;28;20045;-84
2022/08/06 04:59:12;;;;;;;5.55;4.60;;;23.10;1.00;;;;;;5034330;28;20018;-84
2022/08/06 05:01:38;;;;;;;6.15;4.60;;;23.10;1.00;;;;;;5035028;28;20038;-84
2022/08/06 05:04:04;;;;;;;5.40;4.82;;;23.00;1.00;;;;;;5034230;28;20026;-84
2022/08/06 05:06:48;;;;;;;5.97;4.85;;;23.00;1.00;;;;;;5034407;28;20033;-84
2022/08/06 05:09:19;;;;;;;6.53;4.88;;;23.20;1.00;;;;;;5034607;28;20029;-84
2022/08/06 05:11:51;;;;;;;6.18;4.90;;;23.20;1.00;;;;;;5034169;28;20112;-84
2022/08/06 05:14:24;;;;;;;7.07;4.82;;;23.20;1.00;;;;;;5033960;28;20084;-84
2022/08/06 05:16:50;;;;;;;6.65;4.82;;;23.20;1.00;;;;;;5034213;28;20029;-84
2022/08/06 05:19:28;;;;;;;5.13;4.70;;;23.20;1.00;;;;;;5034298;28;20029;-85
2022/08/06 05:21:58;;;;;;;5.88;4.63;;;22.90;1.00;;;;;;5034174;28;20397;-84
2022/08/06 05:24:24;;;;;;;5.32;4.82;;;23.00;1.00;;;;;;5034140;28;20041;-84
2022/08/06 05:26:50;;;;;;;6.43;4.82;;;23.00;1.00;;;;;;5034247;28;20505;-84
2022/08/06 05:29:20;;;;;;;6.05;4.88;;;23.10;1.00;;;;;;5033641;28;20036;-84
2022/08/06 05:31:46;;;;;;;6.22;4.80;;;23.20;1.00;;;;;;5033546;28;20118;-84
2022/08/06 05:34:12;;;;;;;5.40;4.70;;;23.30;1.00;;;;;;5033756;28;20022;-84
2022/08/06 05:36:38;;;;;;;6.88;4.82;;;23.20;1.00;;;;;;5034315;28;20022;-85
2022/08/06 05:39:04;;;;;;;5.93;5.15;;;23.20;1.00;;;;;;5033877;28;20025;-84
2022/08/06 05:41:30;;;;;;;6.30;5.22;;;23.00;1.00;;;;;;5033705;28;20029;-84
2022/08/06 05:43:58;;;;;;;6.95;5.03;;;22.90;1.00;;;;;;5033394;28;20029;-84
2022/08/06 05:46:27;;;;;;;5.07;4.60;;;22.90;1.00;;;;;;5033690;28;20037;-85
2022/08/06 05:49:04;;;;;;;6.05;4.82;;;22.80;1.00;;;;;;5033873;28;20109;-84
2022/08/06 05:51:33;;;;;;;5.45;4.95;;;22.50;1.00;;;;;;5033650;28;20025;-84
2022/08/06 05:54:05;;;;;;;6.63;5.32;;;22.50;1.00;;;;;;5033821;28;20056;-84
2022/08/06 05:56:35;;;;;;;7.95;4.97;;;22.50;1.00;;;;;;5033474;28;20030;-84
2022/08/06 05:59:10;;;;;;;5.68;4.90;;;22.40;1.00;;;;;;5031831;28;20128;-85
2022/08/06 06:01:37;;;;;;;5.65;4.70;;;22.50;1.00;;;;;;5033416;28;20026;-85
2022/08/06 06:04:03;;;;;;;6.30;4.80;;;22.50;1.00;;;;;;5032497;28;20009;-84
2022/08/06 06:06:30;;;;;;;6.10;4.78;;;22.60;1.00;;;;;;5032830;28;20478;-84
2022/08/06 06:08:56;;;;;;;5.32;4.28;;;22.60;1.00;;;;;;5033657;28;20044;-84
2022/08/06 06:11:23;;;;;;;5.45;4.60;;;22.60;1.00;;;;;;5033385;28;20029;-84
2022/08/06 06:13:49;;;;;;;5.13;4.55;;;22.60;1.00;;;;;;5032513;28;20013;-84
2022/08/06 06:16:29;;;;;;;7.72;4.63;;;22.70;1.00;;;;;;5032826;28;20133;-84
2022/08/06 06:19:16;;;;;;;7.20;4.38;;;22.90;1.00;;;;;;5033311;28;20508;-84
2022/08/06 06:22:02;;;;;;;6.05;4.22;;;22.80;1.00;;;;;;5033236;28;20116;-84
2022/08/06 06:24:31;;;;;;;4.75;4.10;;;22.80;1.00;;;;;;5032733;28;20109;-84
2022/08/06 06:27:38;;;;;;;5.13;4.25;;;22.80;1.00;;;;;;5032353;28;20046;-83
2022/08/06 06:30:05;;;;;;;5.70;4.60;;;22.60;1.00;;;;;;4937177;29;20035;-85
2022/08/06 06:32:54;;;;;;;6.18;4.15;;;22.60;1.00;;;;;;4952606;29;20047;-86
2022/08/06 06:35:45;;;;;;;5.57;4.00;;;22.70;1.00;;;;;;4952387;29;20157;-84
2022/08/06 06:38:36;;;;;;;4.47;4.07;;;22.80;1.00;;;;;;4952195;29;20110;-84
2022/08/06 06:41:01;;;;;;;6.22;4.45;;;22.90;1.00;;;;;;4952095;29;20463;-84
2022/08/06 06:43:45;;;;;;;5.32;4.00;;;22.80;1.00;;;;;;4952123;29;20027;-84
2022/08/06 06:46:20;;;;;;;5.30;3.90;;;22.80;1.00;;;;;;4936551;29;20423;-84
2022/08/06 06:49:06;;;;;;;4.63;3.85;;;22.90;1.00;;;;;;4952716;29;20432;-84
2022/08/06 06:51:44;;;;;;;4.78;4.15;;;23.00;1.00;;;;;;4952228;29;20415;-84
2022/08/06 06:54:20;;;;;;;5.65;4.35;;;23.20;1.00;;;;;;4952597;29;20038;-82
2022/08/06 06:56:48;;;;;;;8.30;4.25;;;23.30;1.00;;;;;;4951840;29;20047;-82
2022/08/06 06:59:20;;;;;;;5.72;4.07;;;23.40;1.00;;;;;;4952349;29;20455;-83
2022/08/06 07:01:47;;;;;;;4.80;4.40;;;23.40;1.00;;;;;;4952192;29;20031;-83
2022/08/06 07:04:16;;;;;;;5.55;4.25;;;23.60;1.00;;;;;;4952168;29;20054;-83
2022/08/06 07:06:46;;;;;;;5.68;4.32;;;23.50;1.00;;;;;;5026946;28;20038;-82
2022/08/06 07:09:19;;;;;;;5.75;4.53;;;23.60;1.00;;;;;;5032404;28;20033;-83
2022/08/06 07:11:47;;;;;;;5.05;4.45;;;23.70;1.00;;;;;;5031924;28;20056;-82
2022/08/06 07:14:14;;;;;;;8.35;4.65;;;23.60;1.00;;;;;;5032642;28;20060;-83
2022/08/06 07:16:42;;;;;;;6.25;4.30;;;23.70;1.00;;;;;;5031807;28;20569;-83
2022/08/06 07:19:09;;;;;;;5.93;4.10;;;23.70;1.00;;;;;;5030879;28;20097;-82
2022/08/06 07:21:35;;;;;;;6.22;4.55;;;23.90;1.00;;;;;;5032565;28;20072;-83
2022/08/06 07:24:01;;;;;;;5.05;4.20;;;23.80;1.00;;;;;;5032467;28;20026;-82
2022/08/06 07:26:28;;;;;;;5.00;4.55;;;23.70;1.00;;;;;;5031396;28;20052;-83
2022/08/06 07:28:56;;;;;;;5.05;4.07;;;23.70;1.00;;;;;;5031956;28;20041;-82
2022/08/06 07:31:26;;;;;;;11.48;5.75;;;24.00;1.00;;;;;;5031306;28;20029;-83
2022/08/06 07:33:53;;;;;;;5.78;4.45;;;23.90;1.00;;;;;;5031862;28;20030;-82
2022/08/06 07:36:22;;;;;;;5.60;4.57;;;24.00;1.00;;;;;;5031736;28;20034;-83
2022/08/06 07:38:49;;;;;;;4.95;4.38;;;24.00;1.00;;;;;;5031547;28;20037;-83
2022/08/06 07:41:17;;;;;;;4.75;4.25;;;24.20;1.00;;;;;;5032436;28;20036;-83
2022/08/06 07:43:52;;;;;;;5.30;4.35;;;24.20;1.00;;;;;;5031847;28;20026;-83
2022/08/06 07:46:22;;;;;;;4.97;4.10;;;24.10;1.00;;;;;;5031571;28;20018;-83
2022/08/06 07:48:52;;;;;;;6.78;4.63;;;24.10;1.00;;;;;;5031731;28;20041;-82
2022/08/06 07:51:24;;;;;;;4.10;3.80;;;24.10;1.00;;;;;;5031878;28;20524;-82
2022/08/06 07:53:51;;;;;;;5.50;4.40;;;24.10;1.00;;;;;;5031551;28;20040;-82
2022/08/06 07:56:18;;;;;;;5.10;4.40;;;24.30;1.00;;;;;;5032010;28;20029;-82
2022/08/06 07:58:45;;;;;;;8.05;4.32;;;24.60;1.00;;;;;;5031593;28;20021;-82
2022/08/06 08:01:11;;;;;;;5.18;4.30;;;24.30;1.00;;;;;;5031676;28;20093;-82
2022/08/06 08:06:24;;;;;;;5.70;4.70;;;24.20;1.00;;;;;;5031731;28;20037;-83
2022/08/06 08:08:59;;;;;;;8.68;4.50;;;24.70;1.00;;;;;;5031217;28;20371;-83
2022/08/06 08:11:25;;;;;;;7.45;4.00;;;24.70;1.00;;;;;;5032263;28;20394;-82
2022/08/06 08:13:53;;;;;;;4.88;3.85;;;24.80;1.00;;;;;;5031801;28;20473;-83
2022/08/06 08:16:19;;;;;;;7.05;4.50;;;25.00;1.00;;;;;;5030858;28;20061;-82
2022/08/06 08:18:45;;;;;;;5.60;4.28;;;24.90;1.00;;;;;;5031625;28;20061;-82
2022/08/06 08:21:11;;;;;;;10.27;6.90;;;25.10;1.00;;;;;;5031562;28;20104;-82
2022/08/06 08:23:39;;;;;;;4.72;4.20;;;25.30;1.00;;;;;;5031528;28;20032;-83
2022/08/06 08:26:04;;;;;;;5.15;4.30;;;25.60;1.00;;;;;;5031269;28;20117;-83
2022/08/06 08:28:31;;;;;;;6.20;4.57;;;25.30;1.00;;;;;;5032793;28;20438;-83
2022/08/06 08:30:58;;;;;;;4.78;4.32;;;25.30;1.00;;;;;;5034927;28;20048;-83
2022/08/06 08:33:25;;;;;;;5.65;4.13;;;24.90;1.00;;;;;;5034942;28;20040;-82
2022/08/06 08:35:51;;;;;;;6.22;4.65;;;24.90;1.00;;;;;;5034818;28;20509;-82
2022/08/06 08:38:17;;;;;;;4.90;4.40;;;24.80;1.00;;;;;;5035009;28;20029;-82
2022/08/06 08:40:44;;;;;;;5.70;4.60;;;24.90;1.00;;;;;;5034787;28;20029;-82
2022/08/06 08:43:13;;;;;;;7.30;4.57;;;24.70;1.00;;;;;;5034860;28;20021;-82
2022/08/06 08:45:42;;;;;;;4.85;4.43;;;24.90;1.00;;;;;;5034781;28;20381;-83
2022/08/06 08:48:12;;;;;;;5.10;4.40;;;25.20;1.00;;;;;;5034878;28;20164;-82
2022/08/06 08:50:40;;;;;;;6.15;4.63;;;25.50;1.00;;;;;;5034907;28;20445;-83
2022/08/06 08:53:13;;;;;;;6.95;4.78;;;25.50;1.00;;;;;;5034297;28;20025;-83
2022/08/06 08:55:40;;;;;;;5.07;4.10;;;25.30;1.00;;;;;;5034387;28;20030;-83
2022/08/06 08:58:06;;;;;;;5.38;4.50;;;25.40;1.00;;;;;;5033496;28;20383;-82
2022/08/06 09:00:33;;;;;;;5.00;4.50;;;25.80;1.00;;;;;;5035042;28;20033;-82
2022/08/06 09:02:59;;;;;;;5.05;4.30;;;25.80;1.00;;;;;;5034689;28;20441;-83
2022/08/06 09:05:25;;;;;;;5.32;4.63;;;25.40;1.00;;;;;;5034468;28;20397;-83
2022/08/06 09:07:52;;;;;;;5.95;4.57;;;25.40;1.00;;;;;;5034333;28;20022;-83
2022/08/06 09:10:17;;;;;;;4.32;4.03;;;25.60;1.00;;;;;;5034375;28;20033;-82
2022/08/06 09:12:43;;;;;;;6.63;4.43;;;25.80;1.00;;;;;;5034386;28;20022;-83
2022/08/06 09:15:09;;;;;;;6.00;4.13;;;25.90;1.00;;;;;;5033057;28;20052;-83
2022/08/06 09:17:36;;;;;;;5.97;5.00;;;25.80;1.00;;;;;;5033667;28;20025;-82
2022/08/06 09:20:03;;;;;;;4.43;4.00;;;25.90;1.00;;;;;;5034454;28;20425;-82
2022/08/06 09:22:29;;;;;;;4.60;4.20;;;26.00;1.00;;;;;;5033740;28;20482;-83
2022/08/06 09:24:54;;;;;;;5.18;4.38;;;26.20;1.00;;;;;;5033959;28;20030;-82
2022/08/06 09:27:20;;;;;;;4.53;4.13;;;26.10;1.00;;;;;;5033891;28;20084;-82
2022/08/06 09:30:00;;;;;;;5.00;4.47;;;26.30;1.00;;;;;;5034230;28;20041;-83
2022/08/06 09:32:46;;;;;;;5.57;4.43;;;26.20;1.00;;;;;;5032757;28;20055;-83
2022/08/06 09:35:21;;;;;;;4.63;4.13;;;26.40;1.00;;;;;;5028240;28;20482;-83
2022/08/06 09:37:48;;;;;;;4.78;4.30;;;26.70;1.00;;;;;;5017881;28;20021;-81
2022/08/06 09:40:16;;;;;;;5.85;4.22;;;26.80;1.00;;;;;;5015560;28;20025;-82
2022/08/06 09:42:44;;;;;;;5.10;4.60;;;27.00;1.00;;;;;;5021907;28;20021;-87
2022/08/06 09:45:15;;;;;;;4.57;4.05;;;26.90;1.00;;;;;;5028843;28;20018;-86
2022/08/06 09:47:41;;;;;;;5.97;4.13;;;26.70;1.00;;;;;;5033332;28;20453;-86
2022/08/06 09:50:08;;;;;;;5.43;4.90;;;26.70;1.00;;;;;;5033211;28;20079;-84
2022/08/06 09:52:34;;;;;;;4.80;4.35;;;26.60;1.00;;;;;;5033679;28;20033;-84
2022/08/06 09:55:00;;;;;;;6.75;4.28;;;27.00;1.00;;;;;;5033358;28;20176;-85
2022/08/06 09:57:42;;;;;;;5.90;4.43;;;27.20;1.00;;;;;;5033435;28;20029;-83
2022/08/06 10:00:08;;;;;;;4.88;4.38;;;27.60;1.00;;;;;;5033271;28;20021;-83
2022/08/06 10:02:34;;;;;;;4.40;3.95;;;27.60;1.00;;;;;;5033474;28;20029;-84
2022/08/06 10:05:13;;;;;;;4.97;4.40;;;28.10;1.00;;;;;;5033478;28;20109;-83
2022/08/06 10:07:39;;;;;;;5.10;3.97;;;28.30;1.00;;;;;;5032800;28;20505;-83
2022/08/06 10:10:06;;;;;;;5.03;4.40;;;28.50;1.00;;;;;;5033083;28;20464;-83
2022/08/06 10:12:32;;;;;;;6.95;4.32;;;28.50;1.00;;;;;;5029921;28;20025;-85
2022/08/06 10:14:58;;;;;;;4.40;4.07;;;27.80;1.00;;;;;;5012092;28;20030;-82
2022/08/06 10:17:25;;;;;;;5.05;4.30;;;27.90;1.00;;;;;;5026952;28;20033;-83
2022/08/06 10:20:10;;;;;;;5.18;4.10;;;28.10;1.00;;;;;;5023323;28;20113;-82
2022/08/06 10:22:48;;;;;;;4.32;3.92;;;27.90;1.00;;;;;;5019848;28;20061;-83
2022/08/06 10:25:14;;;;;;;5.10;4.40;;;28.10;1.00;;;;;;5023905;28;20109;-83
2022/08/06 10:27:41;;;;;;;6.05;4.70;;;28.10;1.00;;;;;;5018385;28;20042;-83
2022/08/06 10:30:09;;;;;;;5.13;4.45;;;28.20;1.00;;;;;;5023697;28;20025;-83
2022/08/06 10:32:49;;;;;;;4.45;4.07;;;28.00;1.00;;;;;;5018661;28;20582;-83
2022/08/06 10:35:21;;;;;;;4.63;4.22;;;28.00;1.00;;;;;;5016922;28;20157;-83
2022/08/06 10:37:51;;;;;;;4.85;4.35;;;28.20;1.00;;;;;;5016251;28;20060;-83
2022/08/06 10:40:20;;;;;;;4.78;3.88;;;28.20;1.00;;;;;;5025337;28;20073;-83
2022/08/06 10:42:47;;;;;;;4.55;4.15;;;28.10;1.00;;;;;;5017110;28;20029;-83
2022/08/06 10:45:14;;;;;;;6.15;4.20;;;28.30;1.00;;;;;;5016871;28;20403;-83
2022/08/06 10:47:42;;;;;;;4.85;4.45;;;28.50;1.00;;;;;;5025098;28;20021;-83
2022/08/06 10:50:12;;;;;;;5.32;4.28;;;28.50;1.00;;;;;;5024806;28;20476;-83
2022/08/06 10:52:39;;;;;;;5.03;4.53;;;28.70;1.00;;;;;;5031575;28;20065;-83
2022/08/06 10:55:05;;;;;;;4.78;4.38;;;28.60;1.00;;;;;;5032619;28;20038;-82
2022/08/06 10:57:32;;;;;;;4.35;3.95;;;28.70;1.00;;;;;;5026683;28;20109;-83
2022/08/06 11:00:00;;;;;;;5.03;4.53;;;28.70;1.00;;;;;;5022522;28;20100;-86
2022/08/06 11:02:52;;;;;;;5.53;4.47;;;28.80;1.00;;;;;;5024545;28;20057;-83
2022/08/06 11:05:22;;;;;;;4.70;4.30;;;29.20;1.00;;;;;;5027743;28;20038;-82
2022/08/06 11:08:11;;;;;;;4.55;4.15;;;29.70;1.00;;;;;;5031972;28;20041;-83
2022/08/06 11:11:06;;;;;;;5.63;4.28;;;30.10;1.00;;;;;;5023870;28;20044;-83
2022/08/06 11:13:35;;;;;;;5.82;4.57;;;31.90;1.00;;;;;;5025378;28;20091;-83
2022/08/06 11:16:01;;;;;;;5.53;4.07;;;34.70;1.00;;;;;;5031885;28;20041;-83
2022/08/06 11:18:27;;;;;;;4.63;4.13;;;36.10;1.00;;;;;;5031382;28;20028;-84
2022/08/06 11:20:54;;;;;;;5.18;4.03;;;37.60;1.00;;;;;;5031454;28;20068;-84
2022/08/06 11:23:23;;;;;;;5.80;4.20;;;38.70;1.00;;;;;;5032069;28;20049;-83
2022/08/06 11:25:56;;;;;;;4.53;4.10;;;38.90;1.00;;;;;;5031708;28;20083;-82
2022/08/06 11:28:31;;;;;;;5.28;4.32;;;39.60;1.00;;;;;;5031410;28;20493;-83
2022/08/06 11:31:02;;;;;;;4.72;4.15;;;40.80;1.00;;;;;;5031409;28;20041;-84
2022/08/06 11:33:33;;;;;;;4.50;3.88;;;41.70;1.00;;;;;;5032346;28;20492;-83
2022/08/06 11:36:00;;;;;;;4.47;3.67;;;40.70;1.00;;;;;;5031845;28;20033;-83
2022/08/06 11:38:46;;;;;;;3.90;3.50;;;41.70;1.00;;;;;;5031872;28;20104;-83
2022/08/06 11:41:21;;;;;;;4.45;4.07;;;41.10;1.00;;;;;;5031951;28;20029;-84
2022/08/06 11:43:53;;;;;;;4.03;3.70;;;42.30;1.00;;;;;;5031948;28;20026;-83
2022/08/06 11:46:24;;;;;;;4.15;3.70;;;42.70;1.00;;;;;;5031568;28;20022;-84
2022/08/06 11:48:59;;;;;;;4.57;3.60;;;43.00;1.00;;;;;;5032009;28;20033;-83
2022/08/06 11:51:43;;;;;;;3.80;3.40;;;42.10;1.00;;;;;;5032134;28;20169;-84
2022/08/06 11:54:16;;;;;;;4.15;3.75;;;41.90;1.00;;;;;;5031768;28;20512;-84
2022/08/06 11:57:01;;;;;;;3.80;3.50;;;43.30;1.00;;;;;;5031815;28;20524;-83
2022/08/06 11:59:27;;;;;;;3.95;3.55;;;44.10;1.00;;;;;;5031704;28;20049;-84
2022/08/06 12:01:53;;;;;;;3.60;3.30;;;44.20;1.00;;;;;;5031715;28;20028;-84
2022/08/06 12:04:34;;;;;;;4.60;3.40;;;44.00;1.00;;;;;;5034899;28;20044;-84
2022/08/06 12:07:26;;;;;;;4.57;3.17;;;44.60;1.00;;;;;;5035601;28;20557;-84
2022/08/06 12:10:06;;;;;;;4.47;3.45;;;43.90;1.00;;;;;;5035710;28;20025;-84
2022/08/06 12:12:32;;;;;;;5.45;3.30;;;44.70;1.00;;;;;;5035564;28;20037;-84
2022/08/06 12:15:36;;;;;;;4.15;3.40;;;45.10;1.00;;;;;;5035076;28;20038;-83
2022/08/06 12:18:03;;;;;;;3.08;2.80;;;45.10;1.00;;;;;;5033600;28;20405;-84
2022/08/06 12:20:42;;;;;;;4.68;3.60;;;44.80;1.00;;;;;;5034163;28;20025;-84
2022/08/06 12:23:15;;;;;;;3.38;3.08;;;44.70;1.00;;;;;;5035906;28;20104;-83
2022/08/06 12:25:47;;;;;;;3.42;3.13;;;44.20;1.00;;;;;;5035074;28;20030;-83
2022/08/06 12:28:17;;;;;;;4.40;3.30;;;43.60;1.00;;;;;;5035519;28;20037;-84
2022/08/06 12:30:48;;;;;;;4.13;3.40;;;42.60;1.00;;;;;;5034828;28;20083;-84
2022/08/06 12:33:15;;;;;;;3.78;3.42;;;44.00;1.00;;;;;;5034917;28;20108;-85
2022/08/06 12:35:58;;;;;;;4.03;3.10;;;44.80;1.00;;;;;;5034691;28;20121;-85
2022/08/06 12:38:27;;;;;;;5.93;3.25;;;44.90;1.00;;;;;;5034944;28;20524;-84
2022/08/06 12:41:01;;;;;;;4.32;3.10;;;43.60;1.00;;;;;;5033654;28;20029;-84
2022/08/06 12:43:29;;;;;;;3.33;3.03;;;43.50;1.00;;;;;;5034937;28;20041;-84
2022/08/06 12:46:00;;;;;;;3.40;3.10;;;44.40;1.00;;;;;;5034746;28;20022;-86
2022/08/06 12:48:26;;;;;;;3.72;3.13;;;44.60;1.00;;;;;;5034791;28;20034;-84
2022/08/06 12:51:13;;;;;;;3.42;3.13;;;44.70;1.00;;;;;;5034582;28;20028;-85
2022/08/06 12:54:13;;;;;;;3.83;3.45;;;44.60;1.00;;;;;;5034511;28;20034;-84
2022/08/06 12:56:39;;;;;;;4.30;2.97;;;43.40;1.00;;;;;;5030741;28;20053;-84
2022/08/06 12:59:09;;;;;;;3.80;3.25;;;43.30;1.00;;;;;;5034665;28;20034;-84
2022/08/06 13:01:36;;;;;;;3.55;3.25;;;43.60;1.00;;;;;;5034604;28;20032;-84
2022/08/06 13:04:06;;;;;;;4.03;3.60;;;43.20;1.00;;;;;;5034570;28;20083;-84
2022/08/06 13:06:34;;;;;;;3.72;3.00;;;42.60;1.00;;;;;;5034288;28;20104;-84
2022/08/06 13:08:59;;;;;;;4.03;3.20;;;42.10;1.00;;;;;;5034391;28;20401;-84
2022/08/06 13:11:30;;;;;;;5.32;3.30;;;41.80;1.00;;;;;;5034510;28;20026;-85
2022/08/06 13:13:57;;;;;;;3.92;3.30;;;42.20;1.00;;;;;;5033461;28;20482;-84
2022/08/06 13:16:23;;;;;;;3.40;3.10;;;41.30;1.00;;;;;;5033985;28;20049;-84